createdAt,value
2023-05-18T00:00:40.042Z,20.73
2023-05-18T00:01:40.119Z,20.72
2023-05-18T00:02:40.261Z,20.73
2023-05-18T00:03:40.497Z,20.73
2023-05-18T00:04:40.330Z,20.73
2023-05-18T00:05:40.395Z,20.73
2023-05-18T00:06:40.459Z,20.73
2023-05-18T00:07:40.541Z,20.72
2023-05-18T00:08:40.632Z,20.72
2023-05-18T00:09:40.700Z,20.72
2023-05-18T00:10:40.771Z,20.72
2023-05-18T00:11:40.828Z,20.72
2023-05-18T00:12:40.888Z,20.72
2023-05-18T00:13:40.989Z,20.72
2023-05-18T00:14:41.028Z,20.71
2023-05-18T00:15:41.070Z,20.71
2023-05-18T00:16:41.155Z,20.71
2023-05-18T00:17:41.190Z,20.71
2023-05-18T00:18:41.311Z,20.72
2023-05-18T00:19:41.232Z,20.71
2023-05-18T00:20:41.324Z,20.71
2023-05-18T00:21:41.341Z,20.71
2023-05-18T00:22:41.375Z,20.71
2023-05-18T00:23:41.432Z,20.70
2023-05-18T00:24:41.478Z,20.70
2023-05-18T00:25:41.564Z,20.70
2023-05-18T00:26:41.580Z,20.70
2023-05-18T00:27:41.624Z,20.70
2023-05-18T00:28:41.691Z,20.70
2023-05-18T00:29:41.782Z,20.70
2023-05-18T00:30:41.825Z,20.70
2023-05-18T00:31:41.886Z,20.70
2023-05-18T00:32:42.038Z,20.70
2023-05-18T00:33:42.007Z,20.70
2023-05-18T00:34:42.071Z,20.70
2023-05-18T00:35:42.115Z,20.70
2023-05-18T00:36:42.245Z,20.70
2023-05-18T00:37:42.252Z,20.70
2023-05-18T00:38:42.315Z,20.71
2023-05-18T00:39:42.392Z,20.71
2023-05-18T00:40:42.419Z,20.71
2023-05-18T00:41:42.466Z,20.70
2023-05-18T00:42:42.613Z,20.71
2023-05-18T00:43:42.606Z,20.70
2023-05-18T00:44:42.733Z,20.70
2023-05-18T00:45:42.691Z,20.70
2023-05-18T00:46:42.702Z,20.70
2023-05-18T00:47:42.748Z,20.70
2023-05-18T00:48:42.860Z,20.69
2023-05-18T00:49:42.931Z,20.70
2023-05-18T00:50:42.924Z,20.70
2023-05-18T00:51:43.012Z,20.69
2023-05-18T00:52:42.962Z,20.69
2023-05-18T00:53:44.225Z,20.69
2023-05-18T00:54:43.068Z,20.68
2023-05-18T00:55:43.082Z,20.69
2023-05-18T00:56:43.133Z,20.69
2023-05-18T00:57:43.229Z,20.69
2023-05-18T00:58:43.225Z,20.69
2023-05-18T00:59:43.260Z,20.68
2023-05-18T01:00:43.284Z,20.68
2023-05-18T01:01:43.442Z,20.68
2023-05-18T01:02:43.430Z,20.68
2023-05-18T01:03:43.415Z,20.68
2023-05-18T01:04:43.461Z,20.68
2023-05-18T01:05:43.490Z,20.68
2023-05-18T01:06:43.548Z,20.69
2023-05-18T01:07:43.581Z,20.68
2023-05-18T01:08:43.639Z,20.68
2023-05-18T01:09:43.689Z,20.68
2023-05-18T01:10:43.692Z,20.68
2023-05-18T01:11:43.731Z,20.68
2023-05-18T01:12:43.760Z,20.68
2023-05-18T01:13:43.828Z,20.67
2023-05-18T01:14:43.852Z,20.67
2023-05-18T01:15:43.902Z,20.67
2023-05-18T01:16:43.983Z,20.66
2023-05-18T01:17:44.018Z,20.66
2023-05-18T01:18:44.035Z,20.67
2023-05-18T01:19:44.085Z,20.66
2023-05-18T01:20:44.099Z,20.66
2023-05-18T01:21:44.147Z,20.67
2023-05-18T01:22:44.198Z,20.66
2023-05-18T01:23:44.244Z,20.66
2023-05-18T01:24:44.286Z,20.66
2023-05-18T01:25:44.311Z,20.66
2023-05-18T01:26:44.347Z,20.66
2023-05-18T01:27:44.384Z,20.65
2023-05-18T01:28:44.433Z,20.66
2023-05-18T01:29:44.473Z,20.66
2023-05-18T01:30:44.624Z,20.66
2023-05-18T01:31:44.561Z,20.66
2023-05-18T01:32:44.610Z,20.66
2023-05-18T01:33:44.629Z,20.66
2023-05-18T01:34:44.695Z,20.65
2023-05-18T01:35:44.702Z,20.66
2023-05-18T01:36:44.759Z,20.65
2023-05-18T01:37:44.792Z,20.66
2023-05-18T01:38:44.847Z,20.66
2023-05-18T01:39:44.880Z,20.66
2023-05-18T01:40:44.934Z,20.66
2023-05-18T01:41:44.966Z,20.65
2023-05-18T01:42:44.997Z,20.65
2023-05-18T01:43:45.057Z,20.66
2023-05-18T01:44:45.093Z,20.65
2023-05-18T01:45:45.127Z,20.65
2023-05-18T01:46:45.347Z,20.65
2023-05-18T01:47:45.230Z,20.65
2023-05-18T01:48:45.276Z,20.65
2023-05-18T01:49:45.269Z,20.65
2023-05-18T01:50:45.305Z,20.64
2023-05-18T01:51:45.340Z,20.64
2023-05-18T01:52:45.398Z,20.64
2023-05-18T01:53:45.433Z,20.64
2023-05-18T01:54:45.454Z,20.64
2023-05-18T01:55:45.480Z,20.64
2023-05-18T01:56:45.558Z,20.63
2023-05-18T01:57:45.572Z,20.63
2023-05-18T01:58:45.602Z,20.64
2023-05-18T01:59:45.687Z,20.64
2023-05-18T02:00:45.671Z,20.64
2023-05-18T02:01:45.724Z,20.64
2023-05-18T02:02:45.833Z,20.63
2023-05-18T02:03:45.831Z,20.64
2023-05-18T02:04:45.804Z,20.62
2023-05-18T02:05:45.846Z,20.63
2023-05-18T02:06:45.872Z,20.63
2023-05-18T02:07:45.912Z,20.63
2023-05-18T02:08:45.956Z,20.63
2023-05-18T02:09:45.990Z,20.63
2023-05-18T02:10:46.016Z,20.62
2023-05-18T02:11:46.068Z,20.63
2023-05-18T02:12:46.088Z,20.62
2023-05-18T02:13:46.133Z,20.62
2023-05-18T02:14:46.177Z,20.62
2023-05-18T02:15:46.213Z,20.62
2023-05-18T02:16:46.463Z,20.61
2023-05-18T02:17:46.356Z,20.62
2023-05-18T02:18:46.409Z,20.62
2023-05-18T02:19:46.367Z,20.62
2023-05-18T02:20:46.408Z,20.62
2023-05-18T02:21:46.461Z,20.61
2023-05-18T02:22:46.538Z,20.61
2023-05-18T02:23:46.534Z,20.62
2023-05-18T02:24:46.570Z,20.62
2023-05-18T02:25:46.625Z,20.62
2023-05-18T02:26:46.662Z,20.62
2023-05-18T02:27:46.701Z,20.62
2023-05-18T02:28:46.735Z,20.62
2023-05-18T02:29:46.799Z,20.61
2023-05-18T02:30:46.828Z,20.62
2023-05-18T02:31:46.893Z,20.61
2023-05-18T02:32:47.028Z,20.61
2023-05-18T02:33:46.938Z,20.62
2023-05-18T02:34:46.992Z,20.61
2023-05-18T02:35:47.029Z,20.61
2023-05-18T02:36:47.086Z,20.61
2023-05-18T02:37:47.187Z,20.60
2023-05-18T02:38:47.170Z,20.60
2023-05-18T02:39:47.231Z,20.60
2023-05-18T02:40:47.278Z,20.60
2023-05-18T02:41:47.328Z,20.60
2023-05-18T02:42:47.397Z,20.60
2023-05-18T02:43:47.393Z,20.61
2023-05-18T02:44:47.436Z,20.61
2023-05-18T02:45:47.514Z,20.61
2023-05-18T02:46:47.582Z,20.60
2023-05-18T02:47:47.611Z,20.61
2023-05-18T02:48:47.631Z,20.60
2023-05-18T02:49:47.675Z,20.60
2023-05-18T02:50:47.715Z,20.60
2023-05-18T02:51:47.752Z,20.60
2023-05-18T02:52:47.799Z,20.60
2023-05-18T02:53:47.853Z,20.59
2023-05-18T02:54:47.904Z,20.60
2023-05-18T02:55:47.930Z,20.60
2023-05-18T02:56:47.963Z,20.60
2023-05-18T02:57:48.017Z,20.60
2023-05-18T02:58:48.057Z,20.60
2023-05-18T02:59:48.109Z,20.59
2023-05-18T03:00:48.152Z,20.60
2023-05-18T03:01:48.309Z,20.59
2023-05-18T03:02:48.416Z,20.59
2023-05-18T03:03:48.325Z,20.59
2023-05-18T03:04:49.434Z,20.59
2023-05-18T03:05:48.377Z,20.59
2023-05-18T03:06:48.410Z,20.59
2023-05-18T03:07:48.460Z,20.58
2023-05-18T03:08:48.509Z,20.59
2023-05-18T03:09:48.587Z,20.59
2023-05-18T03:10:48.586Z,20.58
2023-05-18T03:11:48.630Z,20.59
2023-05-18T03:12:48.676Z,20.59
2023-05-18T03:13:48.751Z,20.58
2023-05-18T03:14:48.769Z,20.59
2023-05-18T03:15:48.816Z,20.58
2023-05-18T03:16:48.877Z,20.58
2023-05-18T03:17:48.977Z,20.58
2023-05-18T03:18:48.949Z,20.59
2023-05-18T03:19:49.011Z,20.58
2023-05-18T03:20:49.057Z,20.57
2023-05-18T03:21:49.082Z,20.58
2023-05-18T03:22:49.137Z,20.58
2023-05-18T03:23:49.186Z,20.58
2023-05-18T03:24:49.217Z,20.57
2023-05-18T03:25:49.278Z,20.57
2023-05-18T03:26:49.317Z,20.58
2023-05-18T03:27:49.360Z,20.58
2023-05-18T03:28:49.403Z,20.58
2023-05-18T03:29:49.454Z,20.58
2023-05-18T03:30:49.490Z,20.57
2023-05-18T03:31:49.637Z,20.57
2023-05-18T03:32:49.609Z,20.57
2023-05-18T03:33:49.651Z,20.57
2023-05-18T03:34:49.670Z,20.57
2023-05-18T03:35:49.862Z,20.57
2023-05-18T03:36:49.815Z,20.57
2023-05-18T03:37:49.918Z,20.58
2023-05-18T03:38:49.873Z,20.57
2023-05-18T03:39:49.889Z,20.57
2023-05-18T03:40:49.965Z,20.57
2023-05-18T03:41:50.102Z,20.57
2023-05-18T03:42:50.031Z,20.56
2023-05-18T03:43:50.069Z,20.56
2023-05-18T03:44:50.170Z,20.56
2023-05-18T03:45:50.169Z,20.57
2023-05-18T03:46:50.246Z,20.57
2023-05-18T03:47:50.304Z,20.56
2023-05-18T03:48:50.291Z,20.56
2023-05-18T03:49:50.349Z,20.56
2023-05-18T03:50:50.397Z,20.56
2023-05-18T03:51:50.422Z,20.56
2023-05-18T03:52:50.457Z,20.55
2023-05-18T03:53:50.499Z,20.57
2023-05-18T03:54:50.526Z,20.56
2023-05-18T03:55:50.559Z,20.55
2023-05-18T03:56:50.605Z,20.54
2023-05-18T03:57:50.647Z,20.55
2023-05-18T03:58:50.666Z,20.56
2023-05-18T03:59:50.696Z,20.55
2023-05-18T04:00:50.718Z,20.54
2023-05-18T04:01:50.787Z,20.54
2023-05-18T04:02:50.984Z,20.54
2023-05-18T04:03:50.920Z,20.55
2023-05-18T04:04:50.884Z,20.55
2023-05-18T04:05:50.999Z,20.55
2023-05-18T04:06:50.916Z,20.54
2023-05-18T04:07:50.971Z,20.54
2023-05-18T04:08:51.054Z,20.55
2023-05-18T04:09:51.203Z,20.54
2023-05-18T04:10:51.214Z,20.55
2023-05-18T04:11:51.240Z,20.54
2023-05-18T04:12:51.270Z,20.55
2023-05-18T04:13:51.348Z,20.54
2023-05-18T04:14:51.392Z,20.54
2023-05-18T04:15:51.422Z,20.54
2023-05-18T04:16:51.529Z,20.54
2023-05-18T04:17:51.563Z,20.54
2023-05-18T04:18:51.641Z,20.53
2023-05-18T04:19:51.595Z,20.54
2023-05-18T04:20:51.635Z,20.54
2023-05-18T04:21:51.696Z,20.53
2023-05-18T04:22:51.710Z,20.53
2023-05-18T04:23:51.849Z,20.54
2023-05-18T04:24:51.814Z,20.54
2023-05-18T04:25:51.837Z,20.54
2023-05-18T04:26:51.905Z,20.55
2023-05-18T04:27:51.901Z,20.54
2023-05-18T04:28:51.944Z,20.55
2023-05-18T04:29:51.992Z,20.54
2023-05-18T04:30:52.027Z,20.54
2023-05-18T04:31:52.087Z,20.54
2023-05-18T04:32:52.135Z,20.54
2023-05-18T04:33:52.122Z,20.54
2023-05-18T04:34:52.159Z,20.54
2023-05-18T04:35:52.195Z,20.54
2023-05-18T04:36:52.229Z,20.53
2023-05-18T04:37:52.268Z,20.53
2023-05-18T04:38:52.328Z,20.54
2023-05-18T04:39:52.336Z,20.54
2023-05-18T04:40:52.389Z,20.53
2023-05-18T04:41:52.408Z,20.54
2023-05-18T04:42:52.442Z,20.53
2023-05-18T04:43:52.480Z,20.54
2023-05-18T04:44:52.528Z,20.54
2023-05-18T04:45:52.589Z,20.53
2023-05-18T04:46:52.615Z,20.53
2023-05-18T04:47:52.745Z,20.53
2023-05-18T04:48:52.791Z,20.53
2023-05-18T04:49:52.728Z,20.53
2023-05-18T04:50:52.767Z,20.54
2023-05-18T04:51:52.802Z,20.53
2023-05-18T04:52:52.856Z,20.53
2023-05-18T04:53:52.889Z,20.54
2023-05-18T04:54:52.912Z,20.54
2023-05-18T04:55:52.951Z,20.54
2023-05-18T04:56:53.013Z,20.53
2023-05-18T04:57:53.051Z,20.53
2023-05-18T04:58:53.101Z,20.54
2023-05-18T04:59:53.142Z,20.54
2023-05-18T05:00:53.189Z,20.54
2023-05-18T05:01:53.228Z,20.54
2023-05-18T05:02:53.433Z,20.54
2023-05-18T05:03:53.292Z,20.54
2023-05-18T05:04:53.323Z,20.55
2023-05-18T05:05:53.337Z,20.54
2023-05-18T05:06:53.377Z,20.55
2023-05-18T05:07:53.411Z,20.55
2023-05-18T05:08:53.449Z,20.55
2023-05-18T05:09:53.483Z,20.56
2023-05-18T05:10:53.515Z,20.56
2023-05-18T05:11:53.541Z,20.54
2023-05-18T05:12:53.597Z,20.55
2023-05-18T05:13:53.611Z,20.55
2023-05-18T05:14:53.639Z,20.56
2023-05-18T05:15:53.704Z,20.55
2023-05-18T05:16:53.709Z,20.56
2023-05-18T05:17:53.757Z,20.56
2023-05-18T05:18:53.799Z,20.55
2023-05-18T05:19:53.814Z,20.56
2023-05-18T05:20:53.841Z,20.56
2023-05-18T05:21:53.849Z,20.55
2023-05-18T05:22:53.992Z,20.56
2023-05-18T05:23:53.907Z,20.55
2023-05-18T05:24:53.959Z,20.55
2023-05-18T05:25:53.975Z,20.55
2023-05-18T05:26:54.023Z,20.56
2023-05-18T05:27:54.060Z,20.56
2023-05-18T05:28:54.115Z,20.56
2023-05-18T05:29:54.158Z,20.55
2023-05-18T05:30:54.201Z,20.54
2023-05-18T05:31:54.300Z,20.56
2023-05-18T05:32:54.327Z,20.56
2023-05-18T05:33:54.305Z,20.56
2023-05-18T05:34:54.368Z,20.56
2023-05-18T05:35:54.418Z,20.57
2023-05-18T05:36:54.447Z,20.57
2023-05-18T05:37:54.472Z,20.56
2023-05-18T05:38:54.526Z,20.57
2023-05-18T05:39:54.552Z,20.56
2023-05-18T05:40:54.596Z,20.57
2023-05-18T05:41:54.653Z,20.56
2023-05-18T05:42:54.700Z,20.57
2023-05-18T05:43:54.743Z,20.57
2023-05-18T05:44:54.769Z,20.57
2023-05-18T05:45:54.802Z,20.57
2023-05-18T05:46:54.894Z,20.57
2023-05-18T05:47:54.949Z,20.57
2023-05-18T05:48:54.952Z,20.57
2023-05-18T05:49:54.976Z,20.57
2023-05-18T05:50:55.025Z,20.57
2023-05-18T05:51:55.095Z,20.58
2023-05-18T05:52:55.116Z,20.57
2023-05-18T05:53:55.158Z,20.57
2023-05-18T05:54:55.317Z,20.57
2023-05-18T05:55:55.232Z,20.57
2023-05-18T05:56:55.282Z,20.57
2023-05-18T05:57:55.330Z,20.58
2023-05-18T05:58:55.371Z,20.57
2023-05-18T05:59:55.405Z,20.57
2023-05-18T06:00:55.435Z,20.57
2023-05-18T06:01:55.534Z,20.58
2023-05-18T06:02:55.565Z,20.57
2023-05-18T06:03:55.627Z,20.57
2023-05-18T06:04:55.587Z,20.58
2023-05-18T06:05:55.678Z,20.57
2023-05-18T06:06:55.667Z,20.58
2023-05-18T06:07:55.697Z,20.58
2023-05-18T06:08:55.762Z,20.59
2023-05-18T06:09:55.765Z,20.59
2023-05-18T06:10:55.828Z,20.59
2023-05-18T06:11:55.841Z,20.60
2023-05-18T06:12:55.873Z,20.60
2023-05-18T06:13:55.909Z,20.60
2023-05-18T06:14:55.941Z,20.60
2023-05-18T06:15:55.970Z,20.60
2023-05-18T06:16:56.061Z,20.61
2023-05-18T06:17:56.074Z,20.61
2023-05-18T06:18:56.138Z,20.60
2023-05-18T06:19:56.123Z,20.62
2023-05-18T06:20:56.148Z,20.61
2023-05-18T06:21:56.183Z,20.60
2023-05-18T06:22:56.229Z,20.61
2023-05-18T06:23:56.254Z,20.60
2023-05-18T06:24:56.302Z,20.61
2023-05-18T06:25:56.333Z,20.61
2023-05-18T06:26:56.375Z,20.62
2023-05-18T06:27:56.412Z,20.62
2023-05-18T06:28:56.449Z,20.63
2023-05-18T06:29:56.487Z,20.63
2023-05-18T06:30:56.546Z,20.63
2023-05-18T06:31:56.609Z,20.62
2023-05-18T06:32:56.706Z,20.63
2023-05-18T06:33:56.668Z,20.63
2023-05-18T06:34:56.691Z,20.63
2023-05-18T06:35:56.734Z,20.64
2023-05-18T06:36:56.768Z,20.64
2023-05-18T06:37:56.802Z,20.64
2023-05-18T06:38:56.838Z,20.63
2023-05-18T06:39:56.887Z,20.64
2023-05-18T06:40:56.932Z,20.64
2023-05-18T06:41:56.967Z,20.64
2023-05-18T06:42:57.023Z,20.64
2023-05-18T06:43:57.043Z,20.65
2023-05-18T06:44:57.089Z,20.65
2023-05-18T06:45:57.174Z,20.65
2023-05-18T06:46:57.162Z,20.66
2023-05-18T06:47:57.320Z,20.66
2023-05-18T06:48:57.233Z,20.65
2023-05-18T06:49:57.292Z,20.66
2023-05-18T06:50:57.294Z,20.66
2023-05-18T06:51:57.397Z,20.66
2023-05-18T06:52:57.415Z,20.67
2023-05-18T06:53:57.472Z,20.66
2023-05-18T06:54:57.518Z,20.67
2023-05-18T06:55:57.602Z,20.68
2023-05-18T06:56:57.612Z,20.67
2023-05-18T06:57:57.566Z,20.67
2023-05-18T06:59:00.197Z,20.68
2023-05-18T06:59:57.753Z,20.68
2023-05-18T07:00:57.735Z,20.68
2023-05-18T07:01:57.814Z,20.69
2023-05-18T07:02:57.857Z,20.69
2023-05-18T07:03:57.844Z,20.69
2023-05-18T07:04:57.835Z,20.69
2023-05-18T07:05:57.864Z,20.70
2023-05-18T07:06:57.863Z,20.70
2023-05-18T07:07:57.912Z,20.70
2023-05-18T07:08:57.908Z,20.70
2023-05-18T07:09:57.939Z,20.70
2023-05-18T07:10:57.987Z,20.70
2023-05-18T07:11:58.009Z,20.71
2023-05-18T07:12:58.056Z,20.71
2023-05-18T07:13:58.084Z,20.72
2023-05-18T07:14:58.168Z,20.72
2023-05-18T07:15:58.260Z,20.73
2023-05-18T07:16:58.189Z,20.73
2023-05-18T07:17:58.264Z,20.74
2023-05-18T07:18:58.329Z,20.75
2023-05-18T07:19:58.363Z,20.76
2023-05-18T07:20:58.351Z,20.75
2023-05-18T07:21:58.379Z,20.76
2023-05-18T07:22:58.437Z,20.77
2023-05-18T07:23:58.439Z,20.77
2023-05-18T07:24:58.488Z,20.77
2023-05-18T07:25:58.522Z,20.78
2023-05-18T07:27:00.791Z,20.79
2023-05-18T07:27:58.647Z,20.78
2023-05-18T07:28:58.684Z,20.79
2023-05-18T07:29:58.721Z,20.79
2023-05-18T07:30:58.776Z,20.80
2023-05-18T07:31:58.929Z,20.80
2023-05-18T07:32:58.894Z,20.80
2023-05-18T07:33:58.939Z,20.81
2023-05-18T07:34:58.970Z,20.80
2023-05-18T07:35:59.068Z,20.81
2023-05-18T07:36:59.077Z,20.81
2023-05-18T07:37:59.157Z,20.82
2023-05-18T07:38:59.247Z,20.82
2023-05-18T07:39:59.338Z,20.82
2023-05-18T07:40:59.319Z,20.83
2023-05-18T07:41:59.374Z,20.83
2023-05-18T07:42:59.471Z,20.83
2023-05-18T07:43:59.515Z,20.84
2023-05-18T07:44:59.593Z,20.83
2023-05-18T07:45:59.632Z,20.84
2023-05-18T07:46:59.694Z,20.84
2023-05-18T07:47:59.731Z,20.85
2023-05-18T07:48:59.746Z,20.84
2023-05-18T07:49:59.783Z,20.84
2023-05-18T07:50:59.848Z,20.84
2023-05-18T07:51:59.882Z,20.84
2023-05-18T07:52:59.980Z,20.85
2023-05-18T07:54:00.018Z,20.85
2023-05-18T07:55:00.118Z,20.85
2023-05-18T07:56:00.146Z,20.85
2023-05-18T07:57:00.938Z,20.86
2023-05-18T07:58:00.227Z,20.86
2023-05-18T07:59:00.311Z,20.86
2023-05-18T08:00:00.340Z,20.86
2023-05-18T08:01:00.438Z,20.87
2023-05-18T08:02:00.580Z,20.87
2023-05-18T08:03:00.855Z,20.87
2023-05-18T08:04:00.787Z,20.87
2023-05-18T08:05:00.732Z,20.87
2023-05-18T08:06:03.729Z,20.88
2023-05-18T08:07:00.813Z,20.88
2023-05-18T08:08:00.843Z,20.88
2023-05-18T08:09:00.917Z,20.87
2023-05-18T08:10:00.971Z,20.88
2023-05-18T08:11:00.967Z,20.88
2023-05-18T08:12:00.977Z,20.89
2023-05-18T08:13:01.015Z,20.89
2023-05-18T08:14:01.042Z,20.88
2023-05-18T08:15:01.147Z,20.89
2023-05-18T08:16:11.123Z,20.90
2023-05-18T08:17:02.277Z,20.90
2023-05-18T08:18:01.256Z,20.90
2023-05-18T08:19:01.289Z,20.90
2023-05-18T08:20:01.313Z,20.90
2023-05-18T08:21:01.300Z,20.90
2023-05-18T08:22:01.327Z,20.90
2023-05-18T08:23:01.368Z,20.91
2023-05-18T08:24:01.435Z,20.91
2023-05-18T08:25:01.476Z,20.91
2023-05-18T08:26:01.510Z,20.91
2023-05-18T08:27:01.507Z,20.92
2023-05-18T08:28:01.542Z,20.92
2023-05-18T08:29:01.573Z,20.92
2023-05-18T08:30:01.632Z,20.93
2023-05-18T08:31:01.668Z,20.93
2023-05-18T08:32:01.760Z,20.94
2023-05-18T08:33:01.760Z,20.93
2023-05-18T08:34:01.754Z,20.93
2023-05-18T08:35:01.795Z,20.93
2023-05-18T08:36:01.839Z,20.94
2023-05-18T08:37:01.901Z,20.94
2023-05-18T08:38:02.989Z,20.95
2023-05-18T08:39:01.946Z,20.95
2023-05-18T08:40:01.980Z,20.95
2023-05-18T08:41:02.052Z,20.96
2023-05-18T08:42:02.052Z,20.96
2023-05-18T08:43:02.109Z,20.97
2023-05-18T08:44:02.145Z,20.97
2023-05-18T08:45:02.247Z,20.98
2023-05-18T08:46:02.243Z,20.98
2023-05-18T08:47:02.264Z,20.98
2023-05-18T08:48:02.430Z,20.99
2023-05-18T08:49:02.504Z,20.99
2023-05-18T08:50:02.383Z,20.99
2023-05-18T08:51:02.407Z,20.99
2023-05-18T08:52:02.440Z,20.99
2023-05-18T08:53:02.474Z,21.00
2023-05-18T08:54:02.546Z,21.00
2023-05-18T08:55:02.568Z,21.01
2023-05-18T08:56:02.610Z,21.01
2023-05-18T08:57:02.641Z,21.02
2023-05-18T08:58:02.666Z,21.03
2023-05-18T08:59:02.716Z,21.03
2023-05-18T09:00:02.821Z,21.03
2023-05-18T09:01:02.815Z,21.04
2023-05-18T09:02:02.947Z,21.04
2023-05-18T09:03:02.946Z,21.05
2023-05-18T09:04:02.906Z,21.05
2023-05-18T09:05:02.971Z,21.06
2023-05-18T09:06:02.971Z,21.06
2023-05-18T09:07:03.003Z,21.07
2023-05-18T09:08:03.040Z,21.08
2023-05-18T09:09:03.069Z,21.06
2023-05-18T09:10:03.118Z,21.08
2023-05-18T09:11:03.162Z,21.08
2023-05-18T09:12:03.187Z,21.09
2023-05-18T09:13:03.219Z,21.10
2023-05-18T09:14:03.266Z,21.09
2023-05-18T09:15:03.316Z,21.10
2023-05-18T09:16:03.358Z,21.11
2023-05-18T09:17:03.362Z,21.12
2023-05-18T09:18:03.459Z,21.14
2023-05-18T09:19:03.530Z,21.15
2023-05-18T09:20:03.471Z,21.15
2023-05-18T09:21:03.509Z,21.16
2023-05-18T09:22:03.544Z,21.17
2023-05-18T09:23:03.576Z,21.18
2023-05-18T09:24:03.628Z,21.17
2023-05-18T09:25:03.696Z,21.18
2023-05-18T09:26:03.713Z,21.19
2023-05-18T09:27:03.751Z,21.18
2023-05-18T09:28:03.812Z,21.19
2023-05-18T09:29:03.834Z,21.19
2023-05-18T09:30:03.865Z,21.19
2023-05-18T09:31:03.902Z,21.20
2023-05-18T09:32:03.999Z,21.21
2023-05-18T09:33:04.053Z,21.21
2023-05-18T09:34:04.056Z,21.22
2023-05-18T09:35:04.378Z,21.23
2023-05-18T09:36:04.074Z,21.25
2023-05-18T09:37:04.117Z,21.26
2023-05-18T09:38:04.147Z,21.27
2023-05-18T09:39:04.218Z,21.28
2023-05-18T09:40:04.356Z,21.28
2023-05-18T09:41:04.458Z,21.30
2023-05-18T09:42:04.575Z,21.31
2023-05-18T09:43:04.656Z,21.32
2023-05-18T09:44:04.806Z,21.33
2023-05-18T09:45:04.873Z,21.34
2023-05-18T09:46:04.959Z,21.36
2023-05-18T09:47:05.087Z,21.37
2023-05-18T09:48:05.189Z,21.39
2023-05-18T09:49:05.263Z,21.39
2023-05-18T09:50:05.366Z,21.41
2023-05-18T09:51:05.404Z,21.41
2023-05-18T09:52:05.432Z,21.42
2023-05-18T09:53:05.461Z,21.43
2023-05-18T09:54:05.508Z,21.44
2023-05-18T09:55:05.563Z,21.44
2023-05-18T09:56:05.550Z,21.46
2023-05-18T09:58:05.610Z,21.45
2023-05-18T09:59:05.654Z,21.46
2023-05-18T10:00:05.686Z,21.48
2023-05-18T10:01:05.732Z,21.49
2023-05-18T10:02:05.772Z,21.50
2023-05-18T10:03:05.808Z,21.51
2023-05-18T10:04:05.864Z,21.52
2023-05-18T10:05:05.849Z,21.52
2023-05-18T10:06:05.871Z,21.53
2023-05-18T10:07:05.895Z,21.54
2023-05-18T10:08:05.956Z,21.53
2023-05-18T10:09:05.952Z,21.52
2023-05-18T10:10:09.137Z,21.51
2023-05-18T10:11:06.093Z,21.52
2023-05-18T10:12:06.117Z,21.54
2023-05-18T10:13:06.085Z,21.56
2023-05-18T10:14:06.105Z,21.57
2023-05-18T10:15:06.174Z,21.58
2023-05-18T10:16:06.160Z,21.59
2023-05-18T10:17:15.096Z,21.60
2023-05-18T10:18:07.233Z,21.59
2023-05-18T10:19:06.305Z,21.61
2023-05-18T10:20:06.290Z,21.62
2023-05-18T10:21:06.298Z,21.61
2023-05-18T10:22:06.370Z,21.62
2023-05-18T10:23:06.349Z,21.62
2023-05-18T10:24:06.391Z,21.64
2023-05-18T10:25:06.415Z,21.65
2023-05-18T10:26:06.434Z,21.65
2023-05-18T10:27:06.471Z,21.66
2023-05-18T10:28:06.472Z,21.67
2023-05-18T10:29:06.496Z,21.68
2023-05-18T10:30:06.529Z,21.67
2023-05-18T10:31:06.655Z,21.66
2023-05-18T10:32:07.980Z,21.67
2023-05-18T10:33:11.344Z,21.66
2023-05-18T10:34:07.651Z,21.66
2023-05-18T10:35:06.668Z,21.67
2023-05-18T10:36:06.669Z,21.68
2023-05-18T10:37:06.686Z,21.69
2023-05-18T10:38:06.708Z,21.71
2023-05-18T10:39:06.743Z,21.73
2023-05-18T10:40:06.766Z,21.74
2023-05-18T10:41:06.804Z,21.74
2023-05-18T10:42:06.832Z,21.74
2023-05-18T10:43:06.861Z,21.76
2023-05-18T10:44:06.855Z,21.77
2023-05-18T10:45:06.881Z,21.78
2023-05-18T10:46:06.969Z,21.79
2023-05-18T10:47:07.001Z,21.80
2023-05-18T10:48:07.029Z,21.81
2023-05-18T10:49:07.069Z,21.82
2023-05-18T10:50:07.075Z,21.82
2023-05-18T10:51:07.091Z,21.83
2023-05-18T10:52:07.160Z,21.84
2023-05-18T10:53:07.163Z,21.85
2023-05-18T10:54:07.220Z,21.86
2023-05-18T10:55:07.268Z,21.86
2023-05-18T10:56:07.351Z,21.87
2023-05-18T10:57:07.438Z,21.87
2023-05-18T10:58:07.527Z,21.88
2023-05-18T10:59:07.604Z,21.89
2023-05-18T11:00:07.775Z,21.90
2023-05-18T11:01:07.781Z,21.90
2023-05-18T11:02:07.896Z,21.90
2023-05-18T11:03:07.954Z,21.91
2023-05-18T11:04:08.006Z,21.92
2023-05-18T11:05:08.108Z,21.93
2023-05-18T11:06:08.148Z,21.94
2023-05-18T11:07:08.207Z,21.95
2023-05-18T11:08:08.294Z,21.95
2023-05-18T11:09:08.346Z,21.95
2023-05-18T11:10:08.421Z,21.96
2023-05-18T11:11:08.506Z,21.96
2023-05-18T11:12:08.563Z,21.97
2023-05-18T11:13:08.617Z,21.98
2023-05-18T11:14:08.693Z,21.98
2023-05-18T11:15:08.770Z,21.99
2023-05-18T11:16:08.929Z,21.99
2023-05-18T11:17:08.905Z,22.00
2023-05-18T11:18:08.962Z,22.00
2023-05-18T11:19:08.984Z,22.02
2023-05-18T11:20:09.163Z,22.03
2023-05-18T11:21:09.027Z,22.03
2023-05-18T11:22:09.050Z,22.04
2023-05-18T11:23:09.066Z,22.05
2023-05-18T11:24:09.115Z,22.04
2023-05-18T11:25:09.131Z,22.06
2023-05-18T11:26:09.187Z,22.06
2023-05-18T11:27:09.195Z,22.07
2023-05-18T11:28:09.291Z,22.08
2023-05-18T11:29:09.254Z,22.08
2023-05-18T11:31:10.324Z,22.09
2023-05-18T11:32:09.553Z,22.09
2023-05-18T11:33:09.528Z,22.10
2023-05-18T11:34:09.409Z,22.10
2023-05-18T11:35:09.411Z,22.12
2023-05-18T11:36:09.470Z,22.14
2023-05-18T11:37:09.451Z,22.15
2023-05-18T11:38:09.503Z,22.15
2023-05-18T11:39:09.505Z,22.16
2023-05-18T11:40:11.322Z,22.18
2023-05-18T11:41:09.572Z,22.17
2023-05-18T11:42:09.592Z,22.16
2023-05-18T11:43:09.652Z,22.15
2023-05-18T11:44:09.636Z,22.16
2023-05-18T11:45:09.665Z,22.16
2023-05-18T11:46:09.736Z,22.18
2023-05-18T11:47:09.723Z,22.19
2023-05-18T11:48:09.861Z,22.18
2023-05-18T11:49:09.861Z,22.20
2023-05-18T11:50:09.813Z,22.22
2023-05-18T11:51:09.901Z,22.23
2023-05-18T11:52:09.851Z,22.23
2023-05-18T11:53:09.886Z,22.22
2023-05-18T11:54:09.927Z,22.22
2023-05-18T11:55:09.951Z,22.22
2023-05-18T11:56:10.024Z,22.22
2023-05-18T11:57:11.050Z,22.25
2023-05-18T11:58:10.215Z,22.25
2023-05-18T11:59:10.300Z,22.24
2023-05-18T12:00:10.472Z,22.25
2023-05-18T12:01:10.505Z,22.24
2023-05-18T12:02:10.692Z,22.24
2023-05-18T12:03:10.763Z,22.24
2023-05-18T12:04:10.897Z,22.23
2023-05-18T12:05:10.912Z,22.23
2023-05-18T12:06:10.964Z,22.23
2023-05-18T12:07:11.003Z,22.24
2023-05-18T12:08:11.097Z,22.24
2023-05-18T12:09:11.102Z,22.23
2023-05-18T12:10:11.176Z,22.23
2023-05-18T12:11:11.213Z,22.24
2023-05-18T12:12:11.178Z,22.23
2023-05-18T12:13:11.209Z,22.23
2023-05-18T12:14:11.272Z,22.24
2023-05-18T12:15:11.376Z,22.25
2023-05-18T12:16:11.291Z,22.24
2023-05-18T12:17:11.326Z,22.24
2023-05-18T12:18:11.465Z,22.24
2023-05-18T12:19:11.348Z,22.24
2023-05-18T12:20:11.472Z,22.24
2023-05-18T12:21:11.391Z,22.24
2023-05-18T12:22:11.401Z,22.24
2023-05-18T12:23:11.422Z,22.25
2023-05-18T12:24:11.478Z,22.25
2023-05-18T12:25:11.484Z,22.26
2023-05-18T12:26:11.505Z,22.25
2023-05-18T12:27:11.581Z,22.24
2023-05-18T12:28:11.574Z,22.24
2023-05-18T12:29:11.623Z,22.24
2023-05-18T12:30:11.640Z,22.24
2023-05-18T12:31:11.669Z,22.24
2023-05-18T12:32:11.683Z,22.23
2023-05-18T12:33:11.731Z,22.24
2023-05-18T12:34:11.724Z,22.23
2023-05-18T12:35:11.793Z,22.24
2023-05-18T12:36:11.785Z,22.24
2023-05-18T12:37:11.814Z,22.23
2023-05-18T12:38:11.856Z,22.23
2023-05-18T12:39:11.859Z,22.24
2023-05-18T12:40:11.881Z,22.24
2023-05-18T12:41:11.905Z,22.23
2023-05-18T12:42:11.914Z,22.23
2023-05-18T12:43:11.953Z,22.23
2023-05-18T12:44:11.963Z,22.22
2023-05-18T12:45:12.022Z,22.22
2023-05-18T12:46:12.037Z,22.22
2023-05-18T12:47:12.081Z,22.22
2023-05-18T12:48:12.125Z,22.22
2023-05-18T12:49:12.091Z,22.22
2023-05-18T12:50:12.124Z,22.22
2023-05-18T12:51:12.128Z,22.22
2023-05-18T12:52:12.178Z,22.22
2023-05-18T12:53:12.281Z,22.22
2023-05-18T12:54:13.836Z,22.22
2023-05-18T12:55:12.264Z,22.22